createdAt,value
2022-08-24T00:03:36.347Z,101396.53
2022-08-24T00:08:59.728Z,101393.09
2022-08-24T00:14:24.315Z,101400.16
2022-08-24T00:19:46.625Z,101387.44
2022-08-24T00:25:10.706Z,101386.63
2022-08-24T00:30:34.154Z,101399.53
2022-08-24T00:35:55.995Z,101398.59
2022-08-24T00:41:18.545Z,101393.09
2022-08-24T00:46:52.428Z,101405.06
2022-08-24T00:52:28.696Z,101398.63
2022-08-24T00:57:56.671Z,101338.88
2022-08-24T01:03:19.343Z,101308.19
2022-08-24T01:08:41.895Z,101419.38
2022-08-24T01:14:06.035Z,101407.75
2022-08-24T01:19:35.976Z,101412.66
2022-08-24T01:24:59.095Z,101393.78
2022-08-24T01:30:36.141Z,101407.91
2022-08-24T01:36:03.004Z,101410.41
2022-08-24T01:41:29.108Z,101409.97
2022-08-24T01:46:55.251Z,101413.13
2022-08-24T01:52:23.218Z,101415.09
2022-08-24T01:57:46.885Z,101419.22
2022-08-24T02:03:08.887Z,101421.69
2022-08-24T02:08:32.514Z,101410.91
2022-08-24T02:13:54.794Z,101350.31
2022-08-24T02:19:18.837Z,101382.75
2022-08-24T02:24:41.214Z,101401.56
2022-08-24T02:30:04.524Z,101385.91
2022-08-24T02:35:28.495Z,101430.38
2022-08-24T02:40:51.124Z,101428.97
2022-08-24T02:46:25.832Z,101431.94
2022-08-24T02:51:48.015Z,101434.28
2022-08-24T02:57:12.903Z,101418.56
2022-08-24T03:02:36.615Z,101442.69
2022-08-24T03:07:58.650Z,101404.91
2022-08-24T03:13:23.673Z,101364.91
2022-08-24T03:18:45.484Z,101444.06
2022-08-24T03:24:09.654Z,101406.94
2022-08-24T03:29:33.794Z,101442.63
2022-08-24T03:34:57.035Z,101445.72
2022-08-24T03:40:22.875Z,101448.38
2022-08-24T03:45:50.413Z,101447.88
2022-08-24T03:51:15.495Z,101461.03
2022-08-24T03:56:37.945Z,101466.00
2022-08-24T04:02:00.385Z,101471.56
2022-08-24T04:07:25.314Z,101439.81
2022-08-24T04:12:47.903Z,101424.59
2022-08-24T04:18:13.355Z,101439.00
2022-08-24T04:23:47.074Z,101432.69
2022-08-24T04:29:14.004Z,101437.59
2022-08-24T04:34:40.944Z,101425.72
2022-08-24T04:40:04.820Z,101420.75
2022-08-24T04:45:34.633Z,101418.97
2022-08-24T04:51:04.272Z,101412.53
2022-08-24T04:56:27.735Z,101410.31
2022-08-24T05:01:52.767Z,101444.25
2022-08-24T05:07:19.326Z,101434.06
2022-08-24T05:12:41.934Z,101463.72
2022-08-24T05:18:05.538Z,101453.31
2022-08-24T05:23:28.093Z,101459.75
2022-08-24T05:28:49.894Z,101463.44
2022-08-24T05:34:12.586Z,101457.66
2022-08-24T05:39:34.760Z,101458.50
2022-08-24T05:45:01.786Z,101456.22
2022-08-24T05:50:26.595Z,101463.06
2022-08-24T05:55:49.584Z,101455.63
2022-08-24T06:01:19.347Z,101451.44
2022-08-24T06:06:42.631Z,101457.00
2022-08-24T06:12:09.457Z,101397.00
2022-08-24T06:17:35.358Z,101427.97
2022-08-24T06:22:57.776Z,101421.84
2022-08-24T06:28:28.408Z,101414.63
2022-08-24T06:33:51.497Z,101395.91
2022-08-24T06:39:13.795Z,101387.38
2022-08-24T06:44:39.911Z,101441.84
2022-08-24T06:50:11.494Z,101389.00
2022-08-24T06:55:34.727Z,101392.41
2022-08-24T07:00:57.735Z,101416.03
2022-08-24T07:06:21.279Z,101390.16
2022-08-24T07:11:43.915Z,101385.88
2022-08-24T07:17:06.612Z,101438.16
2022-08-24T07:22:28.620Z,101442.59
2022-08-24T07:27:50.946Z,101446.97
2022-08-24T07:33:13.686Z,101417.97
2022-08-24T07:38:37.265Z,101434.81
2022-08-24T07:44:00.495Z,101420.47
2022-08-24T07:49:36.042Z,101440.38
2022-08-24T07:54:59.582Z,101436.41
2022-08-24T08:00:23.795Z,101434.81
2022-08-24T08:06:00.544Z,101426.06
2022-08-24T08:11:22.736Z,101413.75
2022-08-24T08:16:45.476Z,101397.50
2022-08-24T08:22:26.537Z,101409.84
2022-08-24T08:28:24.872Z,101390.72
2022-08-24T08:33:49.725Z,101416.59
2022-08-24T08:39:16.925Z,101410.22
2022-08-24T08:45:12.059Z,101413.41
2022-08-24T08:51:06.744Z,101408.22
2022-08-24T08:56:59.924Z,101392.28
2022-08-24T09:02:49.175Z,101386.31
2022-08-24T09:08:26.384Z,101402.25
2022-08-24T09:14:13.535Z,101384.72
2022-08-24T09:19:38.162Z,101382.31
2022-08-24T09:25:10.834Z,101390.22
2022-08-24T09:31:05.342Z,101390.31
2022-08-24T09:36:42.804Z,101380.72
2022-08-24T09:42:32.546Z,101384.28
2022-08-24T09:48:28.173Z,101380.72
2022-08-24T09:54:30.853Z,101368.81
2022-08-24T10:00:11.365Z,101384.34
2022-08-24T10:06:15.550Z,101382.78
2022-08-24T10:11:46.787Z,101382.75
2022-08-24T10:17:21.367Z,101377.97
2022-08-24T10:23:02.747Z,101375.59
2022-08-24T10:28:44.134Z,101344.56
2022-08-24T10:34:28.815Z,101371.22
2022-08-24T10:40:14.964Z,101363.66
2022-08-24T10:45:58.967Z,101358.47
2022-08-24T10:52:05.774Z,101355.69
2022-08-24T10:57:48.567Z,101307.19
2022-08-24T11:03:13.054Z,101354.50
2022-08-24T11:08:35.310Z,101299.22
2022-08-24T11:14:19.355Z,101339.41
2022-08-24T11:19:43.075Z,101327.47
2022-08-24T11:25:23.787Z,101327.84
2022-08-24T11:30:49.806Z,101319.47
2022-08-24T11:36:22.417Z,101332.19
2022-08-24T11:42:00.583Z,101319.47
2022-08-24T11:47:45.134Z,101298.78
2022-08-24T11:59:12.124Z,101301.94
2022-08-24T12:04:51.883Z,101286.41
2022-08-24T12:10:58.355Z,101293.56
2022-08-24T12:16:31.796Z,101264.19
2022-08-24T12:22:03.782Z,101218.13
2022-08-24T12:27:38.363Z,101283.72
2022-08-24T12:33:15.082Z,101232.09
2022-08-24T12:38:46.385Z,101208.63
2022-08-24T12:44:15.686Z,101249.13
2022-08-24T12:49:50.484Z,101234.41
2022-08-24T12:55:52.386Z,101265.41
2022-08-24T13:01:20.437Z,101219.72
2022-08-24T13:06:59.894Z,101189.94
2022-08-24T13:12:43.963Z,101247.56
2022-08-24T13:18:14.833Z,101247.94
2022-08-24T13:23:37.515Z,101242.38
2022-08-24T13:29:01.554Z,101235.22
2022-08-24T13:34:37.596Z,101231.25
2022-08-24T13:40:22.692Z,101211.00
2022-08-24T13:45:57.792Z,101223.72
2022-08-24T13:51:44.076Z,101223.72
2022-08-24T13:57:21.536Z,101217.75
2022-08-24T14:03:08.221Z,101224.53
2022-08-24T14:08:45.097Z,101221.69
2022-08-24T14:14:10.872Z,101217.72
2022-08-24T14:19:41.685Z,101226.47
2022-08-24T14:25:21.457Z,101222.06
2022-08-24T14:30:45.594Z,101209.34
2022-08-24T14:36:25.734Z,101223.63
2022-08-24T14:41:59.096Z,101194.97
2022-08-24T14:47:41.894Z,101166.72
2022-08-24T14:53:17.175Z,101209.66
2022-08-24T14:59:12.186Z,101219.94
2022-08-24T15:04:43.645Z,101160.22
2022-08-24T15:10:15.346Z,101214.31
2022-08-24T15:15:50.397Z,101218.94
2022-08-24T15:21:34.077Z,101210.91
2022-08-24T15:27:38.605Z,101212.31
2022-08-24T15:33:19.477Z,101212.88
2022-08-24T15:38:42.786Z,101213.50
2022-08-24T15:44:13.534Z,101202.97
2022-08-24T15:49:51.727Z,101203.47
2022-08-24T15:55:37.539Z,101208.75
2022-08-24T16:01:20.655Z,101212.75
2022-08-24T16:06:45.755Z,101223.09
2022-08-24T16:12:17.175Z,101225.91
2022-08-24T16:17:51.117Z,101205.22
2022-08-24T16:23:27.514Z,101184.47
2022-08-24T16:28:51.362Z,101231.22
2022-08-24T16:34:29.369Z,101227.72
2022-08-24T16:39:51.451Z,101172.88
2022-08-24T16:45:18.931Z,101215.16
2022-08-24T16:50:41.125Z,101217.13
2022-08-24T16:56:04.974Z,101239.09
2022-08-24T17:01:26.927Z,101182.47
2022-08-24T17:06:50.716Z,101227.19
2022-08-24T17:12:13.790Z,101243.09
2022-08-24T17:17:36.470Z,101202.63
2022-08-24T17:22:59.274Z,101224.47
2022-08-24T17:28:21.491Z,101242.50
2022-08-24T17:33:43.446Z,101252.44
2022-08-24T17:39:07.695Z,101245.75
2022-08-24T17:44:34.008Z,101251.72
2022-08-24T17:49:57.527Z,101252.88
2022-08-24T17:55:25.048Z,101248.28
2022-08-24T18:00:47.439Z,101249.09
2022-08-24T18:06:09.803Z,101250.47
2022-08-24T18:11:31.548Z,101243.38
2022-08-24T18:16:57.333Z,101249.41
2022-08-24T18:22:20.882Z,101211.41
2022-08-24T18:27:45.308Z,101228.41
2022-08-24T18:33:08.710Z,101244.59
2022-08-24T18:38:30.910Z,101239.38
2022-08-24T18:43:53.230Z,101207.84
2022-08-24T18:49:19.215Z,101210.25
2022-08-24T18:54:45.285Z,101239.59
2022-08-24T19:00:10.401Z,101232.41
2022-08-24T19:05:32.914Z,101233.19
2022-08-24T19:10:54.956Z,101235.91
2022-08-24T19:16:17.489Z,101230.31
2022-08-24T19:21:40.895Z,101238.31
2022-08-24T19:27:03.525Z,101218.78
2022-08-24T19:32:30.506Z,101241.53
2022-08-24T19:37:52.921Z,101211.22
2022-08-24T19:43:15.672Z,101246.06
2022-08-24T19:48:40.456Z,101246.06
2022-08-24T19:54:02.555Z,101257.94
2022-08-24T19:59:34.396Z,101259.88
2022-08-24T20:04:56.535Z,101253.72
2022-08-24T20:10:21.805Z,101258.25
2022-08-24T20:15:44.212Z,101232.06
2022-08-24T20:21:07.268Z,101236.41
2022-08-24T20:26:33.277Z,101252.19
2022-08-24T20:31:57.535Z,101228.03
2022-08-24T20:37:24.915Z,101248.13
2022-08-24T20:42:48.337Z,101253.47
2022-08-24T20:48:14.258Z,101239.31
2022-08-24T20:53:36.135Z,101232.22
2022-08-24T20:58:58.261Z,101224.31
2022-08-24T21:04:20.701Z,101230.63
2022-08-24T21:09:42.636Z,101202.78
2022-08-24T21:15:05.187Z,101188.59
2022-08-24T21:20:27.666Z,101218.84
2022-08-24T21:25:50.503Z,101185.78
2022-08-24T21:31:12.909Z,101191.69
2022-08-24T21:36:36.043Z,101181.88
2022-08-24T21:42:00.705Z,101172.94
2022-08-24T21:47:23.145Z,101182.13
2022-08-24T21:52:45.184Z,101231.06
2022-08-24T21:58:08.726Z,101215.06
2022-08-24T22:03:31.541Z,101178.66
2022-08-24T22:09:03.512Z,101208.25
2022-08-24T22:14:26.140Z,101211.22
2022-08-24T22:19:48.285Z,101226.50
2022-08-24T22:25:13.325Z,101231.13
2022-08-24T22:30:35.565Z,101225.31
2022-08-24T22:35:57.025Z,101200.53
2022-08-24T22:41:19.063Z,101200.47
2022-08-24T22:46:41.609Z,101228.88
2022-08-24T22:52:03.915Z,101238.94
2022-08-24T22:57:26.845Z,101246.75
2022-08-24T23:02:50.176Z,101219.50
2022-08-24T23:08:12.075Z,101240.47
2022-08-24T23:13:37.393Z,101235.00
2022-08-24T23:19:18.265Z,101235.16
2022-08-24T23:24:42.267Z,101239.41
2022-08-24T23:30:06.145Z,101238.50
2022-08-24T23:35:29.295Z,101235.44
2022-08-24T23:40:51.356Z,101184.53
2022-08-24T23:46:13.833Z,101181.94
2022-08-24T23:51:36.975Z,101235.97
2022-08-24T23:56:59.195Z,101221.88
